Time;durP1;ratioP1;P1;durP2;ratioP2;P2;SDS_P1;SDS_P2;PMS_P1;PMS_P2;Temp;Humidity;BMP_temperature;BMP_pressure;BME280_temperature;BME280_humidity;BME280_pressure;Samples;Min_cycle;Max_cycle;Signal;HPM_P1;HPM_P2
2022/02/09 00:07:48;;;;;;;10.70;4.93;;;;;;;;;;4994603;28;20284;-74
2022/02/09 00:10:14;;;;;;;16.37;5.57;;;;;;;;;;4997522;28;20562;-74
2022/02/09 00:12:47;;;;;;;14.80;5.90;;;;;;;;;;4997566;28;20278;-74
2022/02/09 00:17:56;;;;;;;13.60;5.00;;;;;;;;;;4996449;28;20406;-74
2022/02/09 00:20:52;;;;;;;15.63;6.67;;;;;;;;;;4995436;28;20176;-74
2022/02/09 00:23:41;;;;;;;14.73;6.17;;;;;;;;;;4991647;28;20033;-74
2022/02/09 00:26:38;;;;;;;15.03;5.63;;;;;;;;;;4992483;28;20033;-74
2022/02/09 00:43:01;;;;;;;14.33;5.10;;;;;;;;;;4999092;28;20041;-74
2022/02/09 01:55:50;;;;;;;13.57;5.17;;;;;;;;;;5001904;28;20277;-76
2022/02/09 01:58:15;;;;;;;11.60;4.67;;;;;;;;;;4998658;28;20529;-76
2022/02/09 02:00:41;;;;;;;11.93;4.67;;;;;;;;;;4997896;28;20128;-76
2022/02/09 02:03:06;;;;;;;17.10;6.20;;;;;;;;;;4996798;28;20045;-76
2022/02/09 02:05:35;;;;;;;9.37;4.73;;;;;;;;;;4998623;28;20117;-75
2022/02/09 02:08:01;;;;;;;12.47;4.90;;;;;;;;;;4999094;28;20113;-76
2022/02/09 02:10:41;;;;;;;11.63;5.07;;;;;;;;;;4998565;28;20619;-76
2022/02/09 02:13:32;;;;;;;11.90;4.63;;;;;;;;;;4998249;28;20206;-76
2022/02/09 02:18:30;;;;;;;11.40;4.57;;;;;;;;;;4998393;28;20026;-74
2022/02/09 02:21:23;;;;;;;10.90;4.60;;;;;;;;;;4996841;28;20030;-73
2022/02/09 02:29:45;;;;;;;10.07;4.70;;;;;;;;;;4994016;28;20021;-76
2022/02/09 02:38:24;;;;;;;14.07;5.10;;;;;;;;;;4997145;28;20032;-73
2022/02/09 03:15:28;;;;;;;11.18;5.57;;;;;;;;;;5001790;28;20068;-74
2022/02/09 03:20:53;;;;;;;14.13;5.10;;;;;;;;;;5001466;28;20501;-74
2022/02/09 03:23:41;;;;;;;15.57;5.47;;;;;;;;;;5001833;28;20259;-74
2022/02/09 03:42:30;;;;;;;11.77;5.03;;;;;;;;;;4991070;28;20048;-77
2022/02/09 03:48:29;;;;;;;10.53;4.63;;;;;;;;;;5001876;28;20033;-77
2022/02/09 03:50:44;;;;;;;10.87;5.10;;;;;;;;;;4995174;28;20167;-77
2022/02/09 03:58:51;;;;;;;11.83;4.67;;;;;;;;;;5017815;28;20041;-76
2022/02/09 04:01:17;;;;;;;10.27;4.77;;;;;;;;;;5023747;28;20389;-77
2022/02/09 04:03:43;;;;;;;9.80;5.03;;;;;;;;;;5017202;28;20567;-77
2022/02/09 04:06:09;;;;;;;10.20;4.83;;;;;;;;;;5018404;28;20104;-76
2022/02/09 04:08:41;;;;;;;12.40;4.67;;;;;;;;;;5018081;28;20278;-77
2022/02/09 04:14:28;;;;;;;10.77;4.40;;;;;;;;;;4958508;28;20031;-77
2022/02/09 04:43:53;;;;;;;7.80;4.00;;;;;;;;;;4925549;29;20055;-74
2022/02/09 04:59:25;;;;;;;9.07;3.80;;;;;;;;;;5000438;28;20124;-74
2022/02/09 05:23:09;;;;;;;9.20;3.67;;;;;;;;;;5016254;28;20730;-78
2022/02/09 05:25:44;;;;;;;14.43;3.60;;;;;;;;;;5014591;28;20029;-77
2022/02/09 05:28:21;;;;;;;10.50;4.03;;;;;;;;;;5016253;28;20045;-76
2022/02/09 05:30:48;;;;;;;15.73;4.00;;;;;;;;;;5016892;28;20049;-76
2022/02/09 05:33:14;;;;;;;7.63;3.67;;;;;;;;;;5015487;28;20045;-77
2022/02/09 05:35:43;;;;;;;9.70;3.77;;;;;;;;;;5015306;28;20389;-77
2022/02/09 05:38:08;;;;;;;7.00;3.60;;;;;;;;;;5015267;28;20173;-77
2022/02/09 05:40:34;;;;;;;8.30;3.90;;;;;;;;;;5016113;28;20032;-77
2022/02/09 05:42:59;;;;;;;10.50;3.80;;;;;;;;;;5014958;28;20033;-77
2022/02/09 05:45:30;;;;;;;7.97;3.53;;;;;;;;;;5021196;28;20233;-77
2022/02/09 05:53:12;;;;;;;7.80;3.70;;;;;;;;;;4992408;28;20022;-77
2022/02/09 05:59:04;;;;;;;9.37;3.83;;;;;;;;;;4990128;28;20026;-77
2022/02/09 06:00:58;;;;;;;8.67;3.73;;;;;;;;;;5000385;28;20045;-75
2022/02/09 06:03:24;;;;;;;7.17;3.37;;;;;;;;;;5005714;28;20060;-74
2022/02/09 06:05:49;;;;;;;8.70;3.87;;;;;;;;;;5001632;28;20113;-75
2022/02/09 06:08:14;;;;;;;8.17;3.47;;;;;;;;;;4999297;28;20386;-74
2022/02/09 06:10:46;;;;;;;9.07;3.20;;;;;;;;;;4995551;28;20030;-74
2022/02/09 06:13:41;;;;;;;10.05;3.65;;;;;;;;;;4992874;28;20022;-74
2022/02/09 06:19:39;;;;;;;7.53;3.70;;;;;;;;;;5001920;28;20041;-74
2022/02/09 06:21:39;;;;;;;8.27;3.60;;;;;;;;;;5002181;28;20044;-74
2022/02/09 06:24:04;;;;;;;8.33;3.80;;;;;;;;;;5001394;28;20029;-73
2022/02/09 06:26:29;;;;;;;7.07;3.03;;;;;;;;;;5000734;28;20050;-76
2022/02/09 06:28:55;;;;;;;9.23;4.30;;;;;;;;;;5002111;28;20267;-77
2022/02/09 06:31:20;;;;;;;7.17;3.47;;;;;;;;;;4999573;28;20030;-76
2022/02/09 06:33:46;;;;;;;7.43;3.33;;;;;;;;;;5000976;28;20041;-76
2022/02/09 06:36:14;;;;;;;9.70;3.47;;;;;;;;;;5000476;28;20191;-76
2022/02/09 06:38:40;;;;;;;9.03;4.13;;;;;;;;;;5000108;28;20454;-76
2022/02/09 06:41:06;;;;;;;8.30;4.30;;;;;;;;;;5001089;28;20030;-76
2022/02/09 06:43:32;;;;;;;8.90;4.57;;;;;;;;;;5000373;28;20117;-76
2022/02/09 06:45:58;;;;;;;9.90;4.23;;;;;;;;;;5002288;28;20034;-76
2022/02/09 06:48:23;;;;;;;8.57;3.77;;;;;;;;;;5000787;28;20032;-77
2022/02/09 06:50:57;;;;;;;8.57;4.40;;;;;;;;;;5001025;28;20498;-76
2022/02/09 06:55:55;;;;;;;10.50;4.80;;;;;;;;;;4999425;28;20500;-74
2022/02/09 06:58:41;;;;;;;9.50;3.97;;;;;;;;;;5001380;28;20052;-76
2022/02/09 07:01:07;;;;;;;9.63;4.23;;;;;;;;;;5000473;28;20305;-76
2022/02/09 07:03:32;;;;;;;10.73;4.13;;;;;;;;;;5004062;28;20053;-77
2022/02/09 07:05:58;;;;;;;10.03;5.00;;;;;;;;;;5007722;28;20470;-77
2022/02/09 07:08:23;;;;;;;10.50;4.00;;;;;;;;;;5000132;28;20061;-76
2022/02/09 07:10:48;;;;;;;7.80;4.10;;;;;;;;;;4997904;28;20365;-76
2022/02/09 07:13:14;;;;;;;9.00;4.30;;;;;;;;;;4997384;28;20077;-77
2022/02/09 07:15:43;;;;;;;11.53;4.37;;;;;;;;;;4998232;28;20379;-76
2022/02/09 07:18:12;;;;;;;9.37;4.23;;;;;;;;;;4999390;28;20042;-76
2022/02/09 07:23:50;;;;;;;7.83;3.90;;;;;;;;;;4997337;28;20255;-76
2022/02/09 07:26:17;;;;;;;10.53;5.13;;;;;;;;;;4995947;28;20038;-76
2022/02/09 07:28:43;;;;;;;11.50;4.47;;;;;;;;;;5000881;28;20105;-76
2022/02/09 07:31:08;;;;;;;9.10;4.30;;;;;;;;;;5001058;28;20117;-77
2022/02/09 07:33:38;;;;;;;9.23;4.37;;;;;;;;;;5000681;28;20234;-77
2022/02/09 07:36:04;;;;;;;11.87;5.37;;;;;;;;;;5000551;28;20271;-76
2022/02/09 07:38:29;;;;;;;10.87;5.00;;;;;;;;;;5001228;28;20438;-77
2022/02/09 07:40:58;;;;;;;10.83;3.73;;;;;;;;;;5000062;28;20164;-76
2022/02/09 07:43:37;;;;;;;10.33;4.47;;;;;;;;;;4999948;28;20129;-76
2022/02/09 07:56:11;;;;;;;12.57;4.60;;;;;;;;;;5001024;28;20115;-76
2022/02/09 07:58:37;;;;;;;9.90;4.50;;;;;;;;;;5000656;28;20030;-77
2022/02/09 08:01:02;;;;;;;9.83;4.47;;;;;;;;;;4999962;28;20494;-76
2022/02/09 08:03:28;;;;;;;9.33;4.17;;;;;;;;;;5004885;28;20373;-76
2022/02/09 08:05:53;;;;;;;7.57;4.10;;;;;;;;;;5007924;28;20045;-76
2022/02/09 08:08:18;;;;;;;8.00;3.83;;;;;;;;;;4999037;28;20026;-77
2022/02/09 08:10:51;;;;;;;9.23;4.20;;;;;;;;;;5001885;28;20340;-77
2022/02/09 08:34:35;;;;;;;7.47;3.40;;;;;;;;;;5015420;28;20025;-76
2022/02/09 08:37:00;;;;;;;8.00;4.13;;;;;;;;;;5014899;28;20023;-76
2022/02/09 08:39:26;;;;;;;9.00;3.97;;;;;;;;;;5014612;28;20418;-76
2022/02/09 08:41:52;;;;;;;8.93;4.10;;;;;;;;;;5013777;28;20564;-76
2022/02/09 08:44:18;;;;;;;9.03;3.47;;;;;;;;;;5015685;28;20037;-76
2022/02/09 08:46:43;;;;;;;6.37;3.07;;;;;;;;;;5016112;28;20036;-76
2022/02/09 08:49:09;;;;;;;8.73;3.50;;;;;;;;;;5016693;28;20033;-76
2022/02/09 08:51:34;;;;;;;7.87;3.80;;;;;;;;;;5016451;28;20025;-75
2022/02/09 08:53:59;;;;;;;7.87;3.73;;;;;;;;;;5016679;28;20021;-76
2022/02/09 08:56:27;;;;;;;6.97;2.97;;;;;;;;;;5016516;28;20041;-75
2022/02/09 08:58:53;;;;;;;7.73;3.03;;;;;;;;;;5015997;28;20614;-76
2022/02/09 09:01:27;;;;;;;6.00;3.00;;;;;;;;;;5006382;28;20277;-76
2022/02/09 09:03:56;;;;;;;6.93;3.13;;;;;;;;;;5003345;28;20060;-75
2022/02/09 09:06:25;;;;;;;6.03;2.40;;;;;;;;;;4998933;28;20057;-76
2022/02/09 10:34:19;;;;;;;6.80;2.83;;;;;;;;;;4971925;28;20053;-76
2022/02/09 10:36:47;;;;;;;4.93;2.53;;;;;;;;;;4958233;28;20468;-76
2022/02/09 10:39:15;;;;;;;5.90;2.63;;;;;;;;;;4968110;28;20026;-77
2022/02/09 10:41:49;;;;;;;6.10;2.87;;;;;;;;;;4968867;28;20108;-76
2022/02/09 10:44:19;;;;;;;6.00;3.00;;;;;;;;;;4970694;28;20269;-77
2022/02/09 10:46:52;;;;;;;5.27;2.70;;;;;;;;;;4964367;28;20089;-76
2022/02/09 10:49:20;;;;;;;7.20;3.83;;;;;;;;;;4975984;28;20121;-77
2022/02/09 10:52:04;;;;;;;7.50;3.50;;;;;;;;;;4963960;28;20129;-77
2022/02/09 10:54:31;;;;;;;9.20;3.43;;;;;;;;;;4978261;28;20212;-77
2022/02/09 10:56:57;;;;;;;6.40;3.63;;;;;;;;;;4975088;28;20037;-77
2022/02/09 10:59:24;;;;;;;6.00;2.93;;;;;;;;;;4975302;28;20018;-77
2022/02/09 11:01:50;;;;;;;6.67;3.30;;;;;;;;;;4959881;28;20422;-77
2022/02/09 11:04:16;;;;;;;7.37;3.27;;;;;;;;;;4979049;28;20362;-77
2022/02/09 11:06:42;;;;;;;8.17;3.33;;;;;;;;;;4979527;28;20105;-77
2022/02/09 11:09:08;;;;;;;9.17;3.70;;;;;;;;;;4978860;28;20026;-77
2022/02/09 11:11:37;;;;;;;7.43;3.77;;;;;;;;;;5000195;28;20045;-77
2022/02/09 11:14:03;;;;;;;8.00;3.90;;;;;;;;;;5001679;28;20025;-77
2022/02/09 11:16:30;;;;;;;7.40;3.20;;;;;;;;;;5001746;28;20021;-77
2022/02/09 11:18:57;;;;;;;6.57;3.33;;;;;;;;;;5001316;28;20034;-77
2022/02/09 11:21:25;;;;;;;5.70;3.20;;;;;;;;;;5000767;28;20113;-74
2022/02/09 11:29:49;;;;;;;6.80;3.30;;;;;;;;;;5000056;28;20105;-75
2022/02/09 11:43:18;;;;;;;5.50;2.83;;;;;;;;;;4934246;29;20036;-75
2022/02/09 12:10:50;;;;;;;6.57;3.23;;;;;;;;;;4881216;29;20051;-74
2022/02/09 12:13:41;;;;;;;7.10;3.88;;;;;;;;;;4882377;29;21082;-74
2022/02/09 12:19:10;;;;;;;7.10;3.33;;;;;;;;;;4903739;29;20039;-74
2022/02/09 12:21:50;;;;;;;6.87;3.30;;;;;;;;;;4925207;29;20102;-74
2022/02/09 12:24:17;;;;;;;5.27;2.73;;;;;;;;;;4938808;29;20114;-74
2022/02/09 12:26:55;;;;;;;5.20;2.67;;;;;;;;;;4926083;28;20520;-73
2022/02/09 12:29:21;;;;;;;5.90;2.90;;;;;;;;;;4933673;29;20190;-75
2022/02/09 12:31:46;;;;;;;5.57;2.90;;;;;;;;;;4931732;28;20063;-75
2022/02/09 12:34:20;;;;;;;6.83;3.73;;;;;;;;;;4932032;29;20239;-74
2022/02/09 12:36:47;;;;;;;5.70;2.70;;;;;;;;;;4935004;29;20327;-74
2022/02/09 12:39:15;;;;;;;6.93;3.50;;;;;;;;;;4934265;28;20050;-74
2022/02/09 12:41:40;;;;;;;7.73;2.80;;;;;;;;;;4937595;28;20258;-74
2022/02/09 12:44:09;;;;;;;7.13;3.80;;;;;;;;;;4962571;28;20116;-74
2022/02/09 12:46:35;;;;;;;6.40;3.30;;;;;;;;;;4998248;28;20458;-74
2022/02/09 12:49:17;;;;;;;8.50;3.57;;;;;;;;;;4998893;28;20244;-74
2022/02/09 12:51:45;;;;;;;8.70;4.13;;;;;;;;;;4997176;28;20367;-74
2022/02/09 12:54:11;;;;;;;9.27;3.83;;;;;;;;;;4995997;28;20026;-74
2022/02/09 12:56:40;;;;;;;10.77;3.27;;;;;;;;;;4995209;28;20361;-74
2022/02/09 12:59:07;;;;;;;10.37;4.27;;;;;;;;;;4994035;28;20029;-74
2022/02/09 13:01:44;;;;;;;9.93;4.03;;;;;;;;;;4993599;28;20186;-74
2022/02/09 13:04:10;;;;;;;9.00;4.37;;;;;;;;;;4996241;28;20376;-74
2022/02/09 13:06:35;;;;;;;8.67;4.03;;;;;;;;;;4994781;28;20353;-74
2022/02/09 13:09:00;;;;;;;7.93;4.30;;;;;;;;;;4996080;28;20069;-75
2022/02/09 13:11:29;;;;;;;8.27;3.87;;;;;;;;;;4996617;28;20030;-75
2022/02/09 13:14:26;;;;;;;8.43;3.87;;;;;;;;;;4993713;28;20030;-74
2022/02/09 13:20:12;;;;;;;6.87;3.23;;;;;;;;;;4993624;28;20034;-74
2022/02/09 14:54:31;;;;;;;11.37;5.23;;;;;;;;;;4900379;29;20027;-74
2022/02/09 14:57:05;;;;;;;11.23;5.57;;;;;;;;;;4904532;29;20179;-75
2022/02/09 15:02:37;;;;;;;10.60;5.00;;;;;;;;;;4957136;28;20042;-74
2022/02/09 15:10:32;;;;;;;9.23;4.50;;;;;;;;;;5016693;28;20530;-74
2022/02/09 15:13:14;;;;;;;10.03;4.33;;;;;;;;;;5018180;28;20423;-74
2022/02/09 15:15:58;;;;;;;9.57;4.90;;;;;;;;;;5016168;28;20084;-75
2022/02/09 15:23:22;;;;;;;11.00;5.10;;;;;;;;;;5018443;28;20029;-75
2022/02/09 15:25:47;;;;;;;10.43;4.67;;;;;;;;;;5017404;28;20032;-75
2022/02/09 15:28:13;;;;;;;9.90;4.83;;;;;;;;;;5017166;28;20486;-75
2022/02/09 15:30:52;;;;;;;11.60;4.77;;;;;;;;;;5001300;28;20525;-75
2022/02/09 15:33:23;;;;;;;11.77;5.37;;;;;;;;;;5018377;28;20669;-75
2022/02/09 15:35:54;;;;;;;12.80;5.43;;;;;;;;;;5018032;28;20105;-75
2022/02/09 15:38:24;;;;;;;11.23;5.73;;;;;;;;;;5017018;28;20698;-75
2022/02/09 15:41:04;;;;;;;11.37;5.10;;;;;;;;;;4999811;28;20014;-75
2022/02/09 16:10:39;;;;;;;11.03;5.40;;;;;;;;;;4997784;28;20180;-75
2022/02/09 16:45:08;;;;;;;17.13;7.00;;;;;;;;;;4994298;28;20076;-74
2022/02/09 16:50:24;;;;;;;18.97;7.77;;;;;;;;;;4993295;28;20572;-74
2022/02/09 16:52:57;;;;;;;17.90;7.87;;;;;;;;;;4993535;28;20084;-76
2022/02/09 17:19:31;;;;;;;19.80;8.53;;;;;;;;;;4994608;28;20564;-75
2022/02/09 17:21:57;;;;;;;20.97;8.27;;;;;;;;;;4991355;28;20486;-75
2022/02/09 17:24:22;;;;;;;23.63;9.67;;;;;;;;;;4989010;28;20038;-75
2022/02/09 17:26:47;;;;;;;20.53;8.80;;;;;;;;;;4993029;28;20036;-75
2022/02/09 17:29:19;;;;;;;21.20;8.93;;;;;;;;;;4994452;28;20070;-75
2022/02/09 17:53:33;;;;;;;24.77;10.20;;;;;;;;;;4986220;28;20474;-73
2022/02/09 17:56:03;;;;;;;25.90;9.83;;;;;;;;;;4986913;28;20633;-73
2022/02/09 17:58:37;;;;;;;23.67;9.47;;;;;;;;;;4986212;28;20107;-73
2022/02/09 18:01:03;;;;;;;24.43;9.50;;;;;;;;;;4987312;28;20101;-72
2022/02/09 18:03:28;;;;;;;20.43;9.03;;;;;;;;;;4984425;28;20272;-73
2022/02/09 18:05:56;;;;;;;23.43;8.57;;;;;;;;;;4985478;28;20305;-71
2022/02/09 18:08:47;;;;;;;24.80;9.17;;;;;;;;;;4987367;28;21019;-73
2022/02/09 18:32:55;;;;;;;14.80;4.93;;;;;;;;;;4971567;28;20046;-72
2022/02/09 18:38:31;;;;;;;13.27;5.37;;;;;;;;;;4970871;28;20097;-73
2022/02/09 18:42:06;;;;;;;13.30;4.90;;;;;;;;;;4974476;28;20046;-73
2022/02/09 18:44:02;;;;;;;13.70;5.90;;;;;;;;;;4975411;28;20046;-73
2022/02/09 19:05:47;;;;;;;11.97;4.53;;;;;;;;;;4957929;28;20034;-74
2022/02/09 19:29:55;;;;;;;18.30;6.10;;;;;;;;;;4997708;28;20095;-74
2022/02/09 19:46:15;;;;;;;20.30;6.60;;;;;;;;;;4998671;28;20495;-74
2022/02/09 19:48:44;;;;;;;20.63;6.60;;;;;;;;;;4998500;28;20026;-74
2022/02/09 19:56:12;;;;;;;20.97;7.00;;;;;;;;;;5005433;28;20026;-74
2022/02/09 19:58:45;;;;;;;17.77;5.37;;;;;;;;;;5005924;28;20033;-73
2022/02/09 20:01:18;;;;;;;16.57;6.00;;;;;;;;;;5001329;28;20422;-73
2022/02/09 20:03:43;;;;;;;18.73;5.57;;;;;;;;;;5001135;28;20052;-74
2022/02/09 20:06:09;;;;;;;16.67;5.60;;;;;;;;;;4998972;28;20160;-74
2022/02/09 20:08:38;;;;;;;14.73;5.10;;;;;;;;;;5000443;28;20490;-73
2022/02/09 20:11:04;;;;;;;10.30;3.97;;;;;;;;;;4999810;28;20030;-72
2022/02/09 20:13:29;;;;;;;11.03;3.97;;;;;;;;;;4999177;28;20244;-73
2022/02/09 20:15:55;;;;;;;9.07;3.10;;;;;;;;;;4999987;28;20288;-73
2022/02/09 20:18:20;;;;;;;10.37;2.97;;;;;;;;;;5001339;28;20256;-73
2022/02/09 20:20:46;;;;;;;8.47;3.13;;;;;;;;;;4999218;28;20060;-74
2022/02/09 20:23:12;;;;;;;10.67;3.13;;;;;;;;;;5001015;28;20132;-73
2022/02/09 20:25:37;;;;;;;9.37;3.57;;;;;;;;;;5000807;28;20486;-74
2022/02/09 20:28:05;;;;;;;9.60;3.50;;;;;;;;;;5001612;28;20018;-74
2022/02/09 20:30:36;;;;;;;7.53;2.90;;;;;;;;;;5000739;28;20704;-73
2022/02/09 20:33:06;;;;;;;8.20;2.63;;;;;;;;;;5001765;28;20030;-74
2022/02/09 20:35:32;;;;;;;6.13;2.57;;;;;;;;;;5000549;28;20030;-74
2022/02/09 20:37:57;;;;;;;8.83;2.80;;;;;;;;;;5000602;28;20072;-74
2022/02/09 20:40:34;;;;;;;10.70;3.30;;;;;;;;;;5000616;28;20701;-74
2022/02/09 20:43:01;;;;;;;10.60;3.03;;;;;;;;;;5001172;28;20679;-74
2022/02/09 20:45:32;;;;;;;7.80;3.20;;;;;;;;;;5000713;28;20100;-74
2022/02/09 20:48:05;;;;;;;8.90;4.07;;;;;;;;;;5000833;28;20022;-74
2022/02/09 20:50:31;;;;;;;9.57;3.40;;;;;;;;;;5000401;28;20030;-74
2022/02/09 20:52:56;;;;;;;8.57;3.40;;;;;;;;;;5000334;28;20053;-74
2022/02/09 20:55:22;;;;;;;7.47;3.00;;;;;;;;;;5004536;28;20065;-75
2022/02/09 20:57:48;;;;;;;10.00;3.60;;;;;;;;;;5000123;28;20014;-74
2022/02/09 21:00:21;;;;;;;9.93;4.13;;;;;;;;;;5000536;28;20026;-74
2022/02/09 21:03:02;;;;;;;8.77;3.87;;;;;;;;;;5000432;28;20057;-74
2022/02/09 21:10:57;;;;;;;8.97;3.50;;;;;;;;;;5000041;28;20513;-74
2022/02/09 21:13:33;;;;;;;7.60;3.30;;;;;;;;;;4999137;28;20137;-74
2022/02/09 21:50:04;;;;;;;8.00;3.70;;;;;;;;;;4999841;28;20042;-74
2022/02/09 21:57:20;;;;;;;8.80;2.83;;;;;;;;;;5000276;28;20032;-74
2022/02/09 22:32:27;;;;;;;8.30;2.87;;;;;;;;;;5036097;28;20067;-74
2022/02/09 22:48:33;;;;;;;15.67;4.90;;;;;;;;;;5035566;28;20028;-74
2022/02/09 22:54:28;;;;;;;13.63;4.00;;;;;;;;;;5035300;28;20104;-74
2022/02/09 22:56:29;;;;;;;16.87;5.13;;;;;;;;;;5014773;28;20283;-74
2022/02/09 22:58:55;;;;;;;17.13;5.40;;;;;;;;;;5002244;28;20022;-74
2022/02/09 23:01:33;;;;;;;24.00;5.97;;;;;;;;;;5002957;28;20037;-74
